createdAt,value
2018-08-28T00:01:55.963Z,101746.02
2018-08-28T00:04:25.607Z,101749.53
2018-08-28T00:06:54.760Z,101744.50
2018-08-28T00:09:23.903Z,101751.61
2018-08-28T00:11:53.068Z,101745.22
2018-08-28T00:14:23.075Z,101741.30
2018-08-28T00:16:52.296Z,101746.35
2018-08-28T00:19:21.381Z,101745.89
2018-08-28T00:21:50.592Z,101751.87
2018-08-28T00:24:19.760Z,101744.53
2018-08-28T00:26:48.902Z,101750.82
2018-08-28T00:29:18.105Z,101744.04
2018-08-28T00:31:47.260Z,101749.86
2018-08-28T00:34:16.444Z,101755.55
2018-08-28T00:36:45.590Z,101751.28
2018-08-28T00:39:14.641Z,101748.80
2018-08-28T00:41:43.720Z,101748.50
2018-08-28T00:44:12.809Z,101748.50
2018-08-28T00:46:41.940Z,101750.16
2018-08-28T00:49:11.206Z,101750.85
2018-08-28T00:51:40.337Z,101755.25
2018-08-28T00:54:09.534Z,101747.05
2018-08-28T00:56:38.696Z,101751.17
2018-08-28T00:59:07.943Z,101754.72
2018-08-28T01:01:37.170Z,101754.91
2018-08-28T01:04:06.354Z,101753.36
2018-08-28T01:06:35.431Z,101750.91
2018-08-28T01:09:05.559Z,101753.03
2018-08-28T01:11:34.772Z,101753.03
2018-08-28T01:14:03.987Z,101758.76
2018-08-28T01:16:33.161Z,101753.23
2018-08-28T01:19:02.375Z,101766.95
2018-08-28T01:21:31.538Z,101768.31
2018-08-28T01:24:00.708Z,101767.59
2018-08-28T01:26:29.812Z,101766.63
2018-08-28T01:28:58.967Z,101767.22
2018-08-28T01:31:28.225Z,101763.45
2018-08-28T01:33:57.464Z,101765.17
2018-08-28T01:36:26.593Z,101770.33
2018-08-28T01:38:55.681Z,101768.38
2018-08-28T01:41:24.812Z,101769.73
2018-08-28T01:43:54.066Z,101769.56
2018-08-28T01:46:23.281Z,101766.29
2018-08-28T01:48:52.444Z,101764.17
2018-08-28T01:51:21.635Z,101768.00
2018-08-28T01:53:50.846Z,101771.52
2018-08-28T01:56:19.935Z,101762.55
2018-08-28T01:58:49.163Z,101765.66
2018-08-28T02:01:18.334Z,101763.55
2018-08-28T02:03:47.424Z,101767.38
2018-08-28T02:06:20.317Z,101767.31
2018-08-28T02:08:49.369Z,101760.77
2018-08-28T02:11:18.589Z,101765.63
2018-08-28T02:13:47.699Z,101764.83
2018-08-28T02:16:16.806Z,101761.36
2018-08-28T02:18:46.079Z,101765.30
2018-08-28T02:21:20.871Z,101756.38
2018-08-28T02:23:49.965Z,101759.25
2018-08-28T02:26:19.087Z,101758.89
2018-08-28T02:28:48.235Z,101757.86
2018-08-28T02:31:17.316Z,101759.31
2018-08-28T02:33:46.635Z,101751.34
2018-08-28T02:36:15.777Z,101753.89
2018-08-28T02:38:44.917Z,101762.72
2018-08-28T02:41:14.113Z,101757.75
2018-08-28T02:43:43.207Z,101751.57
2018-08-28T02:46:12.383Z,101750.95
2018-08-28T02:48:41.605Z,101756.30
2018-08-28T02:51:10.693Z,101753.78
2018-08-28T02:53:39.883Z,101758.18
2018-08-28T02:56:08.981Z,101750.45
2018-08-28T02:58:38.048Z,101753.52
2018-08-28T03:01:07.507Z,101753.52
2018-08-28T03:03:36.612Z,101755.06
2018-08-28T03:06:05.765Z,101752.09
2018-08-28T03:08:34.862Z,101758.34
2018-08-28T03:11:04.031Z,101763.94
2018-08-28T03:13:33.226Z,101759.41
2018-08-28T03:16:02.430Z,101762.22
2018-08-28T03:18:31.617Z,101761.98
2018-08-28T03:21:00.713Z,101761.45
2018-08-28T03:23:29.930Z,101768.80
2018-08-28T03:25:59.110Z,101768.67
2018-08-28T03:28:28.241Z,101773.03
2018-08-28T03:30:57.441Z,101769.34
2018-08-28T03:33:26.690Z,101767.98
2018-08-28T03:35:55.932Z,101770.84
2018-08-28T03:38:25.160Z,101773.56
2018-08-28T03:40:54.337Z,101772.50
2018-08-28T03:43:23.421Z,101770.55
2018-08-28T03:45:52.569Z,101767.31
2018-08-28T03:48:21.763Z,101776.14
2018-08-28T03:50:50.950Z,101778.09
2018-08-28T03:53:20.677Z,101772.20
2018-08-28T03:55:49.855Z,101770.72
2018-08-28T03:58:19.147Z,101777.13
2018-08-28T04:00:48.417Z,101769.23
2018-08-28T04:03:17.543Z,101781.80
2018-08-28T04:05:46.767Z,101782.92
2018-08-28T04:08:15.967Z,101784.84
2018-08-28T04:10:45.049Z,101787.16
2018-08-28T04:13:14.153Z,101790.91
2018-08-28T04:15:43.349Z,101790.19
2018-08-28T04:18:12.471Z,101792.64
2018-08-28T04:20:41.845Z,101787.55
2018-08-28T04:23:11.003Z,101791.84
2018-08-28T04:25:40.153Z,101790.09
2018-08-28T04:28:09.324Z,101792.70
2018-08-28T04:30:38.641Z,101798.82
2018-08-28T04:33:07.930Z,101802.30
2018-08-28T04:35:37.066Z,101799.85
2018-08-28T04:38:06.400Z,101802.30
2018-08-28T04:40:35.666Z,101800.94
2018-08-28T04:43:04.924Z,101806.27
2018-08-28T04:45:34.088Z,101811.50
2018-08-28T04:48:03.218Z,101806.28
2018-08-28T04:50:32.476Z,101809.98
2018-08-28T04:53:01.613Z,101812.31
2018-08-28T04:55:30.790Z,101816.29
2018-08-28T04:57:59.976Z,101821.88
2018-08-28T05:00:29.050Z,101814.33
2018-08-28T05:02:58.222Z,101811.22
2018-08-28T05:05:27.368Z,101813.83
2018-08-28T05:07:56.485Z,101824.25
2018-08-28T05:10:25.635Z,101820.03
2018-08-28T05:12:54.750Z,101821.56
2018-08-28T05:15:23.914Z,101825.95
2018-08-28T05:17:53.075Z,101827.41
2018-08-28T05:20:22.248Z,101826.23
2018-08-28T05:22:51.386Z,101834.59
2018-08-28T05:25:20.644Z,101832.45
2018-08-28T05:27:50.947Z,101830.72
2018-08-28T05:30:20.121Z,101836.40
2018-08-28T05:32:49.141Z,101837.98
2018-08-28T05:35:18.227Z,101843.22
2018-08-28T05:37:47.320Z,101840.46
2018-08-28T05:40:16.545Z,101841.82
2018-08-28T05:42:45.838Z,101840.69
2018-08-28T05:45:14.958Z,101840.30
2018-08-28T05:47:44.105Z,101846.71
2018-08-28T05:50:13.201Z,101846.13
2018-08-28T05:52:42.346Z,101844.67
2018-08-28T05:55:11.478Z,101842.91
2018-08-28T05:57:40.632Z,101850.47
2018-08-28T06:00:10.068Z,101850.54
2018-08-28T06:02:39.197Z,101844.24
2018-08-28T06:05:08.574Z,101847.05
2018-08-28T06:07:37.775Z,101849.88
2018-08-28T06:10:06.940Z,101850.19
2018-08-28T06:12:36.144Z,101854.70
2018-08-28T06:15:05.704Z,101857.31
2018-08-28T06:17:34.886Z,101855.78
2018-08-28T06:20:04.247Z,101858.77
2018-08-28T06:22:33.436Z,101864.77
2018-08-28T06:25:02.787Z,101867.02
2018-08-28T06:27:31.932Z,101869.73
2018-08-28T06:30:01.141Z,101871.08
2018-08-28T06:32:30.512Z,101872.61
2018-08-28T06:34:59.718Z,101879.38
2018-08-28T06:37:30.044Z,101881.33
2018-08-28T06:39:59.025Z,101876.59
2018-08-28T06:42:28.106Z,101882.88
2018-08-28T06:44:57.145Z,101884.41
2018-08-28T06:47:26.253Z,101884.59
2018-08-28T06:50:13.499Z,101881.11
2018-08-28T06:52:49.125Z,101882.70
2018-08-28T06:55:18.435Z,101877.14
2018-08-28T06:57:48.129Z,101879.55
2018-08-28T07:00:17.339Z,101883.20
2018-08-28T07:02:46.888Z,101889.62
2018-08-28T07:05:16.277Z,101894.72
2018-08-28T07:07:45.411Z,101898.42
2018-08-28T07:10:14.795Z,101903.85
2018-08-28T07:12:44.015Z,101906.32
2018-08-28T07:15:13.259Z,101905.73
2018-08-28T07:17:42.915Z,101907.39
2018-08-28T07:20:12.063Z,101897.91
2018-08-28T07:22:41.391Z,101908.42
2018-08-28T07:25:10.694Z,101913.25
2018-08-28T07:27:40.160Z,101909.88
2018-08-28T07:30:09.502Z,101910.25
2018-08-28T07:32:39.097Z,101912.89
2018-08-28T07:35:08.413Z,101910.16
2018-08-28T07:37:37.659Z,101908.80
2018-08-28T07:40:07.084Z,101904.41
2018-08-28T07:42:36.385Z,101904.20
2018-08-28T07:45:05.709Z,101896.48
2018-08-28T07:47:34.927Z,101905.47
2018-08-28T07:50:04.111Z,101911.06
2018-08-28T07:52:33.273Z,101898.95
2018-08-28T07:55:02.642Z,101899.68
2018-08-28T07:57:32.196Z,101910.20
2018-08-28T08:00:01.563Z,101912.26
2018-08-28T08:02:36.727Z,101915.94
2018-08-28T08:05:06.272Z,101917.63
2018-08-28T08:07:35.485Z,101918.08
2018-08-28T08:10:04.989Z,101913.11
2018-08-28T08:12:34.213Z,101918.86
2018-08-28T08:15:03.507Z,101920.38
2018-08-28T08:17:32.709Z,101916.27
2018-08-28T08:20:02.008Z,101907.89
2018-08-28T08:22:31.236Z,101904.94
2018-08-28T08:25:00.463Z,101902.09
2018-08-28T08:27:29.590Z,101906.39
2018-08-28T08:29:59.083Z,101908.32
2018-08-28T08:32:28.269Z,101906.24
2018-08-28T08:34:57.593Z,101911.86
2018-08-28T08:37:29.720Z,101905.70
2018-08-28T08:39:59.033Z,101908.68
2018-08-28T08:42:28.289Z,101906.45
2018-08-28T08:44:57.461Z,101901.02
2018-08-28T08:47:26.785Z,101907.75
2018-08-28T08:49:57.123Z,101906.63
2018-08-28T08:52:26.403Z,101913.83
2018-08-28T08:54:55.654Z,101914.16
2018-08-28T08:57:25.000Z,101911.11
2018-08-28T08:59:54.373Z,101916.66
2018-08-28T09:02:23.745Z,101918.13
2018-08-28T09:04:53.246Z,101920.02
2018-08-28T09:07:22.309Z,101915.11
2018-08-28T09:09:51.696Z,101911.53
2018-08-28T09:12:21.011Z,101913.50
2018-08-28T09:14:50.193Z,101914.00
2018-08-28T09:17:19.401Z,101910.31
2018-08-28T09:19:48.638Z,101906.41
2018-08-28T09:22:18.072Z,101911.89
2018-08-28T09:24:47.273Z,101901.14
2018-08-28T09:27:16.589Z,101897.03
2018-08-28T09:29:45.802Z,101895.08
2018-08-28T09:32:15.048Z,101894.56
2018-08-28T09:34:44.189Z,101893.61
2018-08-28T09:37:13.537Z,101890.05
2018-08-28T09:39:42.757Z,101887.23
2018-08-28T09:42:12.015Z,101892.59
2018-08-28T09:44:41.206Z,101881.23
2018-08-28T09:47:11.441Z,101887.39
2018-08-28T09:49:40.609Z,101881.95
2018-08-28T09:52:09.918Z,101891.02
2018-08-28T09:54:39.140Z,101892.28
2018-08-28T09:57:08.399Z,101891.87
2018-08-28T09:59:37.735Z,101897.89
2018-08-28T10:02:07.055Z,101889.56
2018-08-28T10:04:36.387Z,101894.22
2018-08-28T10:07:05.586Z,101899.35
2018-08-28T10:09:34.839Z,101895.58
2018-08-28T10:12:04.227Z,101889.94
2018-08-28T10:14:33.360Z,101893.03
2018-08-28T10:17:02.951Z,101892.45
2018-08-28T10:19:37.526Z,101907.67
2018-08-28T10:22:12.252Z,101906.72
2018-08-28T10:24:41.498Z,101904.39
2018-08-28T10:27:10.777Z,101908.86
2018-08-28T10:29:45.456Z,101910.20
2018-08-28T10:32:14.708Z,101914.75
2018-08-28T10:34:44.006Z,101908.22
2018-08-28T10:37:13.152Z,101914.02
2018-08-28T10:39:42.308Z,101913.39
2018-08-28T10:42:11.560Z,101906.05
2018-08-28T10:44:40.826Z,101906.28
2018-08-28T10:47:10.068Z,101909.91
2018-08-28T10:49:40.539Z,101901.25
2018-08-28T10:52:09.792Z,101903.45
2018-08-28T10:54:38.972Z,101912.50
2018-08-28T10:57:08.248Z,101913.64
2018-08-28T10:59:37.351Z,101916.86
2018-08-28T11:02:06.695Z,101916.50
2018-08-28T11:04:36.243Z,101910.95
2018-08-28T11:07:05.526Z,101909.78
2018-08-28T11:09:34.727Z,101906.81
2018-08-28T11:12:03.989Z,101905.53
2018-08-28T11:14:33.166Z,101907.03
2018-08-28T11:17:02.271Z,101909.53
2018-08-28T11:19:31.936Z,101911.06
2018-08-28T11:22:01.188Z,101913.75
2018-08-28T11:24:31.357Z,101909.20
2018-08-28T11:27:00.487Z,101907.53
2018-08-28T11:29:29.677Z,101905.59
2018-08-28T11:31:58.897Z,101906.34
2018-08-28T11:34:28.007Z,101908.84
2018-08-28T11:36:57.372Z,101906.81
2018-08-28T11:39:32.056Z,101909.26
2018-08-28T11:42:01.224Z,101913.12
2018-08-28T11:44:30.316Z,101914.64
2018-08-28T11:46:59.534Z,101916.47
2018-08-28T11:49:28.689Z,101905.94
2018-08-28T11:51:57.892Z,101907.05
2018-08-28T11:54:27.634Z,101908.77
2018-08-28T11:56:57.312Z,101914.44
2018-08-28T11:59:26.456Z,101914.66
2018-08-28T12:01:55.692Z,101915.73
2018-08-28T12:04:24.810Z,101919.81
2018-08-28T12:06:54.015Z,101902.62
2018-08-28T12:09:23.104Z,101909.83
2018-08-28T12:11:52.312Z,101910.39
2018-08-28T12:14:21.481Z,101915.61
2018-08-28T12:16:50.970Z,101909.28
2018-08-28T12:19:20.177Z,101913.22
2018-08-28T12:21:49.432Z,101907.78
2018-08-28T12:24:18.771Z,101906.95
2018-08-28T12:26:47.959Z,101900.58
2018-08-28T12:29:17.032Z,101897.27
2018-08-28T12:31:46.255Z,101902.62
2018-08-28T12:34:15.508Z,101892.06
2018-08-28T12:36:44.791Z,101895.89
2018-08-28T12:39:14.066Z,101889.64
2018-08-28T12:41:43.392Z,101881.04
2018-08-28T12:44:13.598Z,101883.55
2018-08-28T12:46:42.768Z,101881.95
2018-08-28T12:49:12.052Z,101885.45
2018-08-28T12:51:41.345Z,101888.03
2018-08-28T12:54:10.521Z,101884.34
2018-08-28T12:56:39.712Z,101885.30
2018-08-28T12:59:08.972Z,101882.80
2018-08-28T13:01:38.333Z,101875.51
2018-08-28T13:04:07.561Z,101879.69
2018-08-28T13:06:36.798Z,101873.23
2018-08-28T13:09:07.090Z,101871.31
2018-08-28T13:11:36.270Z,101870.41
2018-08-28T13:14:05.481Z,101866.12
2018-08-28T13:16:34.703Z,101874.37
2018-08-28T13:19:04.111Z,101867.09
2018-08-28T13:21:33.506Z,101870.56
2018-08-28T13:24:02.685Z,101869.34
2018-08-28T13:26:32.114Z,101864.16
2018-08-28T13:29:01.518Z,101855.85
2018-08-28T13:31:30.628Z,101859.41
2018-08-28T13:33:59.804Z,101858.13
2018-08-28T13:36:29.174Z,101853.55
2018-08-28T13:38:58.412Z,101852.66
2018-08-28T13:41:27.849Z,101849.51
2018-08-28T13:43:57.206Z,101848.16
2018-08-28T13:46:26.409Z,101850.01
2018-08-28T13:48:55.514Z,101852.86
2018-08-28T13:51:25.130Z,101852.79
2018-08-28T13:53:54.465Z,101853.30
2018-08-28T13:56:23.694Z,101846.87
2018-08-28T13:58:52.804Z,101844.62
2018-08-28T14:01:22.361Z,101849.45
2018-08-28T14:03:51.948Z,101845.25
2018-08-28T14:06:21.428Z,101845.02
2018-08-28T14:08:50.680Z,101848.95
2018-08-28T14:11:20.028Z,101843.95
2018-08-28T14:13:49.386Z,101839.52
2018-08-28T14:16:19.118Z,101846.47
2018-08-28T14:18:49.319Z,101841.94
2018-08-28T14:21:18.691Z,101841.48
2018-08-28T14:23:48.157Z,101840.22
2018-08-28T14:26:17.642Z,101846.86
2018-08-28T14:28:47.086Z,101842.31
2018-08-28T14:31:16.091Z,101844.44
2018-08-28T14:33:45.775Z,101841.74
2018-08-28T14:36:14.898Z,101836.41
2018-08-28T14:38:44.031Z,101833.78
2018-08-28T14:41:14.230Z,101842.00
2018-08-28T14:43:43.649Z,101850.16
2018-08-28T14:46:13.089Z,101835.22
2018-08-28T14:48:42.168Z,101834.00
2018-08-28T14:51:11.263Z,101834.66
2018-08-28T14:53:41.317Z,101832.59
2018-08-28T14:56:10.816Z,101829.59
2018-08-28T14:58:40.514Z,101825.28
2018-08-28T15:01:10.274Z,101821.09
2018-08-28T15:03:39.637Z,101814.01
2018-08-28T15:06:08.735Z,101807.33
2018-08-28T15:08:38.023Z,101805.09
2018-08-28T15:11:07.223Z,101803.86
2018-08-28T15:13:36.687Z,101802.78
2018-08-28T15:16:06.537Z,101798.44
2018-08-28T15:18:35.688Z,101801.78
2018-08-28T15:21:05.140Z,101792.53
2018-08-28T15:23:38.347Z,101791.92
2018-08-28T15:26:07.754Z,101786.46
2018-08-28T15:28:42.540Z,101766.27
2018-08-28T15:31:17.322Z,101781.11
2018-08-28T15:33:46.990Z,101781.84
2018-08-28T15:36:16.892Z,101761.59
2018-08-28T15:38:46.140Z,101776.11
2018-08-28T15:41:15.462Z,101775.94
2018-08-28T15:43:44.711Z,101776.94
2018-08-28T15:46:14.173Z,101772.56
2018-08-28T15:48:43.340Z,101763.17
2018-08-28T15:51:12.769Z,101765.18
2018-08-28T15:53:42.830Z,101765.50
2018-08-28T15:56:12.315Z,101751.03
2018-08-28T15:58:41.858Z,101754.39
2018-08-28T16:01:11.214Z,101762.45
2018-08-28T16:03:40.850Z,101761.36
2018-08-28T16:06:10.444Z,101761.58
2018-08-28T16:08:39.655Z,101760.70
2018-08-28T16:11:09.019Z,101755.27
2018-08-28T16:13:38.332Z,101756.89
2018-08-28T16:16:07.936Z,101754.80
2018-08-28T16:18:37.156Z,101756.25
2018-08-28T16:21:07.694Z,101753.62
2018-08-28T16:23:39.513Z,101748.36
2018-08-28T16:26:08.999Z,101745.48
2018-08-28T16:28:38.553Z,101746.84
2018-08-28T16:31:07.689Z,101739.05
2018-08-28T16:33:37.433Z,101737.92
2018-08-28T16:36:06.738Z,101729.40
2018-08-28T16:38:36.689Z,101735.22
2018-08-28T16:41:05.835Z,101731.09
2018-08-28T16:43:35.060Z,101724.39
2018-08-28T16:46:04.205Z,101722.42
2018-08-28T16:48:33.455Z,101719.34
2018-08-28T16:51:02.651Z,101718.82
2018-08-28T16:53:31.804Z,101707.73
2018-08-28T16:56:01.209Z,101709.66
2018-08-28T16:58:30.668Z,101710.44
2018-08-28T17:00:59.974Z,101701.14
2018-08-28T17:03:29.171Z,101699.54
2018-08-28T17:05:58.633Z,101701.05
2018-08-28T17:08:28.206Z,101701.17
2018-08-28T17:10:57.336Z,101704.28
2018-08-28T17:13:26.535Z,101694.27
2018-08-28T17:16:01.459Z,101699.69
2018-08-28T17:18:32.123Z,101693.23
2018-08-28T17:21:01.623Z,101687.16
2018-08-28T17:23:31.365Z,101694.59
2018-08-28T17:26:00.805Z,101691.22
2018-08-28T17:28:29.923Z,101688.91
2018-08-28T17:30:59.358Z,101686.70
2018-08-28T17:33:28.611Z,101680.76
2018-08-28T17:35:57.790Z,101677.52
2018-08-28T17:38:26.897Z,101675.66
2018-08-28T17:40:57.285Z,101676.55
2018-08-28T17:43:27.773Z,101675.44
2018-08-28T17:45:57.279Z,101679.48
2018-08-28T17:48:26.642Z,101679.59
2018-08-28T17:50:56.799Z,101679.87
2018-08-28T17:53:26.077Z,101678.36
2018-08-28T17:55:55.209Z,101682.83
2018-08-28T17:58:25.029Z,101682.41
2018-08-28T18:00:54.309Z,101675.23
2018-08-28T18:03:23.741Z,101677.97
2018-08-28T18:05:53.134Z,101680.70
2018-08-28T18:08:28.340Z,101678.36
2018-08-28T18:10:57.443Z,101679.97
2018-08-28T18:13:26.629Z,101674.13
2018-08-28T18:15:56.031Z,101676.14
2018-08-28T18:18:25.457Z,101673.52
2018-08-28T18:20:54.817Z,101673.63
2018-08-28T18:23:23.922Z,101669.22
2018-08-28T18:25:53.384Z,101665.84
2018-08-28T18:28:22.965Z,101666.69
2018-08-28T18:30:52.176Z,101662.47
2018-08-28T18:33:21.351Z,101656.20
2018-08-28T18:35:50.857Z,101667.19
2018-08-28T18:38:20.070Z,101662.25
2018-08-28T18:40:49.748Z,101666.27
2018-08-28T18:43:19.068Z,101665.37
2018-08-28T18:45:48.605Z,101662.42
2018-08-28T18:48:17.893Z,101657.84
2018-08-28T18:50:47.340Z,101656.38
2018-08-28T18:53:16.700Z,101650.81
2018-08-28T18:55:46.193Z,101653.61
2018-08-28T18:58:15.461Z,101648.70
2018-08-28T19:00:44.633Z,101644.79
2018-08-28T19:03:14.047Z,101642.12
2018-08-28T19:05:43.371Z,101638.94
2018-08-28T19:08:12.755Z,101644.73
2018-08-28T19:10:41.937Z,101646.93
2018-08-28T19:13:11.116Z,101646.87
2018-08-28T19:15:40.472Z,101654.19
2018-08-28T19:18:09.804Z,101644.98
2018-08-28T19:20:39.122Z,101645.52
2018-08-28T19:23:08.862Z,101650.34
2018-08-28T19:25:38.212Z,101651.78
2018-08-28T19:28:07.405Z,101653.61
2018-08-28T19:30:36.635Z,101659.51
2018-08-28T19:33:06.045Z,101656.63
2018-08-28T19:35:35.323Z,101653.77
2018-08-28T19:38:04.749Z,101663.48
2018-08-28T19:40:35.158Z,101658.95
2018-08-28T19:43:04.329Z,101655.91
2018-08-28T19:45:33.481Z,101653.13
2018-08-28T19:48:03.296Z,101650.66
2018-08-28T19:50:32.584Z,101646.66
2018-08-28T19:53:01.713Z,101649.55
2018-08-28T19:55:31.104Z,101640.55
2018-08-28T19:58:00.544Z,101647.05
2018-08-28T20:00:29.765Z,101653.45
2018-08-28T20:02:59.307Z,101656.05
2018-08-28T20:05:28.540Z,101651.88
2018-08-28T20:07:57.638Z,101651.12
2018-08-28T20:10:26.810Z,101652.05
2018-08-28T20:12:55.973Z,101654.48
2018-08-28T20:15:25.139Z,101645.58
2018-08-28T20:17:54.318Z,101643.98
2018-08-28T20:20:23.569Z,101646.94
2018-08-28T20:22:52.822Z,101646.77
2018-08-28T20:25:21.888Z,101641.72
2018-08-28T20:27:51.078Z,101642.26
2018-08-28T20:30:20.318Z,101640.91
2018-08-28T20:32:49.432Z,101641.08
2018-08-28T20:35:18.537Z,101643.15
2018-08-28T20:37:47.661Z,101641.14
2018-08-28T20:40:16.830Z,101634.14
2018-08-28T20:42:51.556Z,101633.00
2018-08-28T20:45:20.800Z,101635.84
2018-08-28T20:47:55.479Z,101622.83
2018-08-28T20:50:24.727Z,101617.41
2018-08-28T20:52:53.979Z,101619.03
2018-08-28T20:55:23.301Z,101620.77
2018-08-28T20:57:52.504Z,101618.80
2018-08-28T21:00:21.551Z,101620.64
2018-08-28T21:02:50.811Z,101608.64
2018-08-28T21:05:25.298Z,101606.53
2018-08-28T21:07:54.421Z,101606.42
2018-08-28T21:10:23.628Z,101599.66
2018-08-28T21:12:53.050Z,101603.33
2018-08-28T21:15:22.295Z,101598.98
2018-08-28T21:17:51.699Z,101591.62
2018-08-28T21:20:20.959Z,101589.77
2018-08-28T21:22:50.315Z,101582.45
2018-08-28T21:25:19.363Z,101586.58
2018-08-28T21:27:48.569Z,101578.34
2018-08-28T21:30:17.729Z,101576.33
2018-08-28T21:32:46.859Z,101574.73
2018-08-28T21:35:15.975Z,101571.66
2018-08-28T21:37:45.268Z,101573.61
2018-08-28T21:40:14.501Z,101575.55
2018-08-28T21:42:43.625Z,101580.76
2018-08-28T21:45:12.829Z,101583.33
2018-08-28T21:47:41.969Z,101573.34
2018-08-28T21:50:11.217Z,101575.19
2018-08-28T21:52:40.371Z,101572.14
2018-08-28T21:55:09.471Z,101570.21
2018-08-28T21:57:44.243Z,101564.94
2018-08-28T22:00:18.868Z,101561.78
2018-08-28T22:02:48.092Z,101563.25
2018-08-28T22:05:17.217Z,101559.48
2018-08-28T22:07:46.381Z,101555.67
2018-08-28T22:10:15.575Z,101550.89
2018-08-28T22:12:44.622Z,101553.24
2018-08-28T22:15:14.496Z,101549.75
2018-08-28T22:17:43.601Z,101545.47
2018-08-28T22:20:12.772Z,101540.05
2018-08-28T22:22:41.870Z,101543.20
2018-08-28T22:25:10.965Z,101541.30
2018-08-28T22:27:40.089Z,101549.59
2018-08-28T22:30:09.894Z,101536.69
2018-08-28T22:32:39.751Z,101540.56
2018-08-28T22:35:09.112Z,101534.19
2018-08-28T22:37:38.291Z,101536.91
2018-08-28T22:40:09.919Z,101532.78
2018-08-28T22:42:39.175Z,101533.67
2018-08-28T22:45:08.396Z,101537.04
2018-08-28T22:47:37.617Z,101536.44
2018-08-28T22:50:07.045Z,101532.32
2018-08-28T22:52:36.200Z,101524.70
2018-08-28T22:55:05.359Z,101539.70
2018-08-28T23:00:34.428Z,101526.41
2018-08-28T23:03:03.563Z,101523.44
2018-08-28T23:05:32.751Z,101526.61
2018-08-28T23:08:02.022Z,101522.78
2018-08-28T23:10:31.205Z,101520.93
2018-08-28T23:13:00.509Z,101520.44
2018-08-28T23:15:29.728Z,101516.61
2018-08-28T23:17:58.881Z,101519.42
2018-08-28T23:20:28.080Z,101510.19
2018-08-28T23:22:57.213Z,101512.91
2018-08-28T23:25:26.399Z,101510.34
2018-08-28T23:27:55.531Z,101509.09
2018-08-28T23:30:24.710Z,101508.34
2018-08-28T23:32:53.771Z,101505.47
2018-08-28T23:35:22.949Z,101501.16
2018-08-28T23:37:52.053Z,101506.62
2018-08-28T23:40:21.251Z,101504.17
2018-08-28T23:42:50.441Z,101500.55
2018-08-28T23:45:19.521Z,101493.83
2018-08-28T23:47:48.601Z,101498.34
2018-08-28T23:50:17.833Z,101495.64
2018-08-28T23:52:46.773Z,101502.35
2018-08-28T23:55:15.811Z,101497.89
2018-08-28T23:57:44.754Z,101498.98
